Time,TemperatureF,DewpointF,PressureIn,WindDirection,WindDirectionDegrees,WindSpeedMPH,WindSpeedGustMPH,Humidity,HourlyPrecipIn,Conditions,Clouds,dailyrainin,SoftwareType,DateUTC
2013-08-06 00:01:00,61.7,54.1,29.53,SSW,202,0.0,0.0,76,0.00,,,0.00,VWS V14.01,2013-08-06 04:01:00,
2013-08-06 00:02:00,61.7,54.1,29.53,SSW,202,0.0,0.0,76,0.00,,,0.00,VWS V14.01,2013-08-06 04:02:00,
2013-08-06 00:07:00,61.5,53.5,29.53,SSW,202,0.0,0.0,75,0.00,,,0.00,VWS V14.01,2013-08-06 04:07:00,
2013-08-06 00:12:00,61.3,53.4,29.53,South,180,0.0,0.0,75,0.00,,,0.00,VWS V14.01,2013-08-06 04:12:00,
2013-08-06 00:17:00,61.2,53.2,29.53,SSE,158,0.0,0.0,75,0.00,,,0.00,VWS V14.01,2013-08-06 04:17:00,
2013-08-06 00:22:00,61.2,53.2,29.53,SE,135,0.0,0.0,75,0.00,,,0.00,VWS V14.01,2013-08-06 04:22:00,
2013-08-06 00:27:00,60.8,52.8,29.53,SE,135,0.0,0.0,75,0.00,,,0.00,VWS V14.01,2013-08-06 04:27:00,
2013-08-06 00:32:00,60.8,52.8,29.53,SSE,158,0.0,0.0,75,0.00,,,0.00,VWS V14.01,2013-08-06 04:32:00,
2013-08-06 00:37:00,60.8,53.2,29.53,SSE,158,0.0,0.0,76,0.00,,,0.00,VWS V14.01,2013-08-06 04:37:00,
2013-08-06 00:42:00,60.6,53.4,29.53,SSE,158,0.0,0.0,77,0.00,,,0.00,VWS V14.01,2013-08-06 04:42:00,
2013-08-06 00:48:00,60.6,53.0,29.53,SSE,158,0.0,0.0,76,0.00,,,0.00,VWS V14.01,2013-08-06 04:48:00,
2013-08-06 00:53:00,60.6,53.4,29.56,SSE,158,0.0,0.0,77,0.00,,,0.00,VWS V14.01,2013-08-06 04:53:00,
2013-08-06 00:58:00,60.6,53.7,29.56,SSE,158,0.0,0.0,78,0.00,,,0.00,VWS V14.01,2013-08-06 04:58:00,
2013-08-06 01:03:00,60.6,53.7,29.56,SSE,158,0.0,0.0,78,0.00,,,0.00,VWS V14.01,2013-08-06 05:03:00,
2013-08-06 01:08:00,60.6,53.7,29.53,SSE,158,0.0,0.0,78,0.00,,,0.00,VWS V14.01,2013-08-06 05:08:00,
2013-08-06 01:13:00,60.6,53.7,29.53,SSE,158,0.0,0.0,78,0.00,,,0.00,VWS V14.01,2013-08-06 05:13:00,
2013-08-06 01:18:00,60.6,53.7,29.53,SSE,158,0.0,0.0,78,0.00,,,0.00,VWS V14.01,2013-08-06 05:18:00,
2013-08-06 01:23:00,60.6,53.7,29.56,SSE,158,0.0,0.0,78,0.00,,,0.00,VWS V14.01,2013-08-06 05:23:00,
2013-08-06 01:28:00,60.8,53.9,29.56,SSE,158,0.0,0.0,78,0.00,,,0.00,VWS V14.01,2013-08-06 05:28:00,
2013-08-06 01:33:00,60.8,53.9,29.56,SSE,158,0.0,0.0,78,0.00,,,0.00,VWS V14.01,2013-08-06 05:33:00,
2013-08-06 01:38:00,61.0,54.1,29.56,SSE,158,0.0,0.0,78,0.00,,,0.00,VWS V14.01,2013-08-06 05:38:00,
2013-08-06 01:43:00,61.0,54.4,29.56,SSE,158,0.0,0.0,79,0.00,,,0.00,VWS V14.01,2013-08-06 05:43:00,
2013-08-06 01:48:00,61.0,54.4,29.56,SSE,158,0.0,0.0,79,0.00,,,0.00,VWS V14.01,2013-08-06 05:48:00,
2013-08-06 01:53:00,60.8,54.3,29.56,SSE,158,0.0,0.0,79,0.00,,,0.00,VWS V14.01,2013-08-06 05:53:00,
2013-08-06 01:58:00,60.6,54.1,29.56,SSE,158,0.0,0.0,79,0.00,,,0.00,VWS V14.01,2013-08-06 05:58:00,
2013-08-06 02:03:00,60.6,54.1,29.56,SSE,158,0.0,0.0,79,0.00,,,0.00,VWS V14.01,2013-08-06 06:03:00,
2013-08-06 02:08:00,60.6,54.1,29.56,SSE,158,0.0,0.0,79,0.00,,,0.00,VWS V14.01,2013-08-06 06:08:00,
2013-08-06 02:13:00,60.6,54.4,29.56,SSE,158,0.0,0.0,80,0.00,,,0.00,VWS V14.01,2013-08-06 06:13:00,
2013-08-06 02:18:00,60.6,54.4,29.56,SSE,158,0.0,0.0,80,0.00,,,0.00,VWS V14.01,2013-08-06 06:18:00,
2013-08-06 02:23:00,60.4,54.2,29.56,SSE,158,0.0,0.0,80,0.00,,,0.00,VWS V14.01,2013-08-06 06:23:00,
2013-08-06 02:28:00,60.4,54.2,29.56,SSE,158,0.0,0.0,80,0.00,,,0.00,VWS V14.01,2013-08-06 06:28:00,
2013-08-06 02:33:00,60.3,54.1,29.56,SSE,158,0.0,0.0,80,0.00,,,0.00,VWS V14.01,2013-08-06 06:33:00,
2013-08-06 02:38:00,60.1,53.9,29.56,SSE,158,0.0,0.0,80,0.00,,,0.00,VWS V14.01,2013-08-06 06:38:00,
2013-08-06 02:43:00,60.3,54.1,29.56,East,90,0.0,0.0,80,0.00,,,0.00,VWS V14.01,2013-08-06 06:43:00,
2013-08-06 02:48:00,60.1,54.2,29.56,ESE,112,0.0,0.0,81,0.00,,,0.00,VWS V14.01,2013-08-06 06:48:00,
2013-08-06 02:53:00,60.1,54.2,29.56,ESE,112,0.0,0.0,81,0.00,,,0.00,VWS V14.01,2013-08-06 06:53:00,
2013-08-06 02:58:00,60.1,54.2,29.56,NE,45,0.0,0.0,81,0.00,,,0.00,VWS V14.01,2013-08-06 06:58:00,
2013-08-06 03:03:00,60.1,54.6,29.56,NE,45,0.0,0.0,82,0.00,,,0.00,VWS V14.01,2013-08-06 07:03:00,
2013-08-06 03:08:00,60.3,54.8,29.56,NNE,22,0.0,0.0,82,0.00,,,0.00,VWS V14.01,2013-08-06 07:08:00,
2013-08-06 03:13:00,60.3,54.8,29.56,NNE,22,0.0,0.0,82,0.00,,,0.00,VWS V14.01,2013-08-06 07:13:00,
2013-08-06 03:18:00,60.3,54.8,29.56,NNE,22,0.0,0.0,82,0.00,,,0.00,VWS V14.01,2013-08-06 07:18:00,
2013-08-06 03:23:00,60.3,54.8,29.56,NNE,22,0.0,0.0,82,0.00,,,0.00,VWS V14.01,2013-08-06 07:23:00,
2013-08-06 03:28:00,60.3,54.8,29.56,NNE,22,0.0,0.0,82,0.00,,,0.00,VWS V14.01,2013-08-06 07:28:00,
2013-08-06 03:33:00,60.3,54.8,29.56,NNE,22,0.0,0.0,82,0.00,,,0.00,VWS V14.01,2013-08-06 07:33:00,
2013-08-06 03:38:00,60.3,54.8,29.56,NE,45,0.0,0.0,82,0.00,,,0.00,VWS V14.01,2013-08-06 07:38:00,
2013-08-06 03:43:00,60.1,54.6,29.56,NE,45,0.0,0.0,82,0.00,,,0.00,VWS V14.01,2013-08-06 07:43:00,
2013-08-06 03:48:00,60.1,54.6,29.56,NE,45,0.0,0.0,82,0.00,,,0.00,VWS V14.01,2013-08-06 07:48:00,
2013-08-06 03:53:00,60.1,54.6,29.56,NE,45,0.0,0.0,82,0.00,,,0.00,VWS V14.01,2013-08-06 07:53:00,
2013-08-06 03:58:00,60.1,54.6,29.56,ENE,68,0.0,0.0,82,0.00,,,0.00,VWS V14.01,2013-08-06 07:58:00,
2013-08-06 04:03:00,60.1,54.6,29.56,East,90,0.0,0.0,82,0.00,,,0.00,VWS V14.01,2013-08-06 08:03:00,
2013-08-06 04:08:00,59.9,54.4,29.56,ENE,68,1.6,1.6,82,0.00,,,0.00,VWS V14.01,2013-08-06 08:08:00,
2013-08-06 04:13:00,59.9,54.4,29.56,ENE,68,0.0,0.0,82,0.00,,,0.00,VWS V14.01,2013-08-06 08:13:00,
2013-08-06 04:18:00,59.9,54.4,29.56,ESE,112,0.0,0.0,82,0.00,,,0.00,VWS V14.01,2013-08-06 08:18:00,
2013-08-06 04:23:00,59.7,54.2,29.56,East,90,0.0,0.0,82,0.00,,,0.00,VWS V14.01,2013-08-06 08:23:00,
2013-08-06 04:28:00,59.9,54.4,29.56,East,90,0.0,0.0,82,0.00,,,0.00,VWS V14.01,2013-08-06 08:28:00,
2013-08-06 04:33:00,59.9,54.4,29.56,East,90,0.0,0.0,82,0.00,,,0.00,VWS V14.01,2013-08-06 08:33:00,
2013-08-06 04:38:00,59.9,54.7,29.53,East,90,0.0,0.0,83,0.00,,,0.00,VWS V14.01,2013-08-06 08:38:00,
2013-08-06 04:43:00,59.9,54.4,29.53,ENE,68,0.0,0.0,82,0.00,,,0.00,VWS V14.01,2013-08-06 08:43:00,
2013-08-06 04:48:00,59.9,54.7,29.53,NE,45,2.0,2.0,83,0.00,,,0.00,VWS V14.01,2013-08-06 08:48:00,
2013-08-06 04:53:00,59.9,54.4,29.56,NE,45,1.1,1.1,82,0.00,,,0.00,VWS V14.01,2013-08-06 08:53:00,
2013-08-06 04:58:00,59.7,54.2,29.56,NE,45,0.0,0.0,82,0.00,,,0.00,VWS V14.01,2013-08-06 08:58:00,
2013-08-06 05:03:00,59.7,54.2,29.56,NE,45,0.9,0.9,82,0.00,,,0.00,VWS V14.01,2013-08-06 09:03:00,
2013-08-06 05:08:00,59.7,54.2,29.56,NE,45,0.0,0.0,82,0.00,,,0.00,VWS V14.01,2013-08-06 09:08:00,
2013-08-06 05:13:00,59.5,54.0,29.56,NE,45,0.0,0.0,82,0.00,,,0.00,VWS V14.01,2013-08-06 09:13:00,
2013-08-06 05:18:00,59.4,53.9,29.56,NE,45,0.0,0.0,82,0.00,,,0.00,VWS V14.01,2013-08-06 09:18:00,
2013-08-06 05:23:00,59.4,53.9,29.56,NNE,22,0.0,0.0,82,0.00,,,0.00,VWS V14.01,2013-08-06 09:23:00,
2013-08-06 05:28:00,59.2,53.7,29.56,NE,45,0.0,0.0,82,0.00,,,0.00,VWS V14.01,2013-08-06 09:28:00,
2013-08-06 05:33:00,59.2,53.7,29.56,East,90,0.0,0.0,82,0.00,,,0.00,VWS V14.01,2013-08-06 09:33:00,
2013-08-06 05:38:00,59.0,53.5,29.56,ESE,112,0.0,0.0,82,0.00,,,0.00,VWS V14.01,2013-08-06 09:38:00,
2013-08-06 05:43:00,58.8,53.7,29.56,ESE,112,0.0,0.0,83,0.00,,,0.00,VWS V14.01,2013-08-06 09:43:00,
2013-08-06 05:48:00,58.8,53.7,29.56,East,90,0.0,0.0,83,0.00,,,0.00,VWS V14.01,2013-08-06 09:48:00,
2013-08-06 05:53:00,58.6,53.5,29.56,East,90,0.0,0.0,83,0.00,,,0.00,VWS V14.01,2013-08-06 09:53:00,
2013-08-06 05:58:00,58.5,53.0,29.56,East,90,0.0,0.0,82,0.00,,,0.00,VWS V14.01,2013-08-06 09:58:00,
2013-08-06 06:03:00,58.5,53.3,29.56,NE,45,0.0,0.0,83,0.00,,,0.00,VWS V14.01,2013-08-06 10:03:00,
2013-08-06 06:08:00,58.5,53.3,29.53,NNE,22,0.0,0.0,83,0.00,,,0.00,VWS V14.01,2013-08-06 10:08:00,
2013-08-06 06:13:00,58.5,53.3,29.53,ENE,68,0.0,0.0,83,0.00,,,0.00,VWS V14.01,2013-08-06 10:13:00,
2013-08-06 06:18:00,58.5,53.3,29.53,ENE,68,0.0,0.0,83,0.00,,,0.00,VWS V14.01,2013-08-06 10:18:00,
2013-08-06 06:23:00,58.5,53.7,29.56,ENE,68,0.0,0.0,84,0.00,,,0.00,VWS V14.01,2013-08-06 10:23:00,
2013-08-06 06:28:00,58.5,53.7,29.56,ENE,68,0.0,0.0,84,0.00,,,0.00,VWS V14.01,2013-08-06 10:28:00,
2013-08-06 06:33:00,58.8,54.3,29.56,ENE,68,0.0,0.0,85,0.00,,,0.00,VWS V14.01,2013-08-06 10:33:00,
2013-08-06 06:38:00,59.0,54.5,29.56,East,90,0.0,0.0,85,0.00,,,0.00,VWS V14.01,2013-08-06 10:38:00,
2013-08-06 06:43:00,59.2,54.7,29.56,NE,45,1.3,1.3,85,0.00,,,0.00,VWS V14.01,2013-08-06 10:43:00,
2013-08-06 06:48:00,59.4,54.9,29.56,NE,45,2.0,2.0,85,0.00,,,0.00,VWS V14.01,2013-08-06 10:48:00,
2013-08-06 06:53:00,59.5,55.0,29.56,NNE,22,2.7,2.7,85,0.00,,,0.00,VWS V14.01,2013-08-06 10:53:00,
2013-08-06 06:58:00,59.7,55.2,29.56,NE,45,2.5,2.5,85,0.00,,,0.00,VWS V14.01,2013-08-06 10:58:00,
2013-08-06 07:03:00,59.9,55.4,29.56,NNE,22,0.0,0.0,85,0.00,,,0.00,VWS V14.01,2013-08-06 11:03:00,
2013-08-06 07:08:00,59.9,55.1,29.53,ENE,68,2.5,2.5,84,0.00,,,0.00,VWS V14.01,2013-08-06 11:08:00,
2013-08-06 07:13:00,60.1,55.2,29.53,ENE,68,2.5,2.5,84,0.00,,,0.00,VWS V14.01,2013-08-06 11:13:00,
2013-08-06 07:18:00,60.1,55.2,29.53,NE,45,2.5,2.5,84,0.00,,,0.00,VWS V14.01,2013-08-06 11:18:00,
2013-08-06 07:23:00,60.3,55.1,29.56,NE,45,3.8,3.8,83,0.00,,,0.00,VWS V14.01,2013-08-06 11:23:00,
2013-08-06 07:28:00,60.3,55.1,29.56,NE,45,2.7,2.7,83,0.00,,,0.00,VWS V14.01,2013-08-06 11:28:00,
2013-08-06 07:34:00,60.4,55.3,29.56,ENE,68,0.0,0.0,83,0.00,,,0.00,VWS V14.01,2013-08-06 11:34:00,
2013-08-06 07:39:00,60.6,55.4,29.56,ENE,68,2.7,2.7,83,0.00,,,0.00,VWS V14.01,2013-08-06 11:39:00,
2013-08-06 07:44:00,60.6,55.4,29.56,NE,45,0.9,0.9,83,0.00,,,0.00,VWS V14.01,2013-08-06 11:44:00,
2013-08-06 07:49:00,60.8,55.3,29.56,NE,45,3.1,3.1,82,0.00,,,0.00,VWS V14.01,2013-08-06 11:49:00,
2013-08-06 07:54:00,60.8,55.3,29.53,NE,45,0.9,0.9,82,0.00,,,0.00,VWS V14.01,2013-08-06 11:54:00,
2013-08-06 07:59:00,61.0,55.5,29.53,NNE,22,2.7,2.7,82,0.00,,,0.00,VWS V14.01,2013-08-06 11:59:00,
2013-08-06 08:04:00,61.0,55.5,29.53,NNE,22,2.5,2.5,82,0.00,,,0.00,VWS V14.01,2013-08-06 12:04:00,
2013-08-06 08:09:00,61.0,55.1,29.56,NNE,22,3.4,3.4,81,0.00,,,0.00,VWS V14.01,2013-08-06 12:09:00,
2013-08-06 08:14:00,61.0,55.1,29.56,NE,45,1.1,1.1,81,0.00,,,0.00,VWS V14.01,2013-08-06 12:14:00,
2013-08-06 08:19:00,61.0,55.1,29.56,NE,45,3.1,3.1,81,0.00,,,0.00,VWS V14.01,2013-08-06 12:19:00,
2013-08-06 08:24:00,61.2,55.3,29.56,ENE,68,1.6,1.6,81,0.00,,,0.00,VWS V14.01,2013-08-06 12:24:00,
2013-08-06 08:29:00,61.3,55.5,29.56,ENE,68,2.2,2.2,81,0.00,,,0.00,VWS V14.01,2013-08-06 12:29:00,
2013-08-06 08:34:00,61.7,55.8,29.56,NE,45,3.6,3.6,81,0.00,,,0.00,VWS V14.01,2013-08-06 12:34:00,
2013-08-06 08:39:00,61.9,56.0,29.56,NE,45,2.9,2.9,81,0.00,,,0.00,VWS V14.01,2013-08-06 12:39:00,
2013-08-06 08:44:00,62.2,56.3,29.56,NNE,22,2.2,2.2,81,0.00,,,0.00,VWS V14.01,2013-08-06 12:44:00,
2013-08-06 08:49:00,62.4,56.2,29.56,NNE,22,0.0,0.0,80,0.00,,,0.00,VWS V14.01,2013-08-06 12:49:00,
2013-08-06 08:54:00,62.8,56.5,29.56,NE,45,4.0,4.0,80,0.00,,,0.00,VWS V14.01,2013-08-06 12:54:00,
2013-08-06 08:59:00,63.0,56.7,29.56,NE,45,0.0,0.0,80,0.00,,,0.00,VWS V14.01,2013-08-06 12:59:00,
2013-08-06 09:04:00,63.3,57.0,29.56,NNE,22,3.8,3.8,80,0.00,,,0.00,VWS V14.01,2013-08-06 13:04:00,
2013-08-06 09:09:00,63.5,57.2,29.56,NE,45,0.9,0.9,80,0.00,,,0.00,VWS V14.01,2013-08-06 13:09:00,
2013-08-06 09:14:00,63.7,57.0,29.56,NNE,22,2.5,2.5,79,0.00,,,0.00,VWS V14.01,2013-08-06 13:14:00,
2013-08-06 09:19:00,63.9,57.2,29.56,NNE,22,3.4,3.4,79,0.00,,,0.00,VWS V14.01,2013-08-06 13:19:00,
2013-08-06 09:24:00,63.9,56.9,29.56,NE,45,2.7,2.7,78,0.00,,,0.00,VWS V14.01,2013-08-06 13:24:00,
2013-08-06 09:29:00,64.0,57.0,29.56,NE,45,3.1,3.1,78,0.00,,,0.00,VWS V14.01,2013-08-06 13:29:00,
2013-08-06 09:34:00,64.4,57.0,29.56,NE,45,2.2,2.2,77,0.00,,,0.00,VWS V14.01,2013-08-06 13:34:00,
2013-08-06 09:39:00,64.6,57.2,29.56,NE,45,2.7,2.7,77,0.00,,,0.00,VWS V14.01,2013-08-06 13:39:00,
2013-08-06 09:45:00,64.6,56.5,29.56,North,0,0.0,0.0,75,0.00,,,0.00,VWS V14.01,2013-08-06 13:45:00,
2013-08-06 09:50:00,64.8,57.0,29.56,SSE,158,1.3,1.3,76,0.00,,,0.00,VWS V14.01,2013-08-06 13:50:00,
2013-08-06 09:55:00,65.3,57.2,29.56,SSW,202,0.0,0.0,75,0.00,,,0.00,VWS V14.01,2013-08-06 13:55:00,
2013-08-06 10:00:00,65.7,57.5,29.56,North,0,0.9,0.9,75,0.00,,,0.00,VWS V14.01,2013-08-06 14:00:00,
2013-08-06 10:05:00,65.8,58.1,29.56,NE,45,3.6,3.6,76,0.00,,,0.00,VWS V14.01,2013-08-06 14:05:00,
2013-08-06 10:10:00,66.2,57.7,29.56,NE,45,0.0,0.0,74,0.00,,,0.00,VWS V14.01,2013-08-06 14:10:00,
2013-08-06 10:15:00,66.4,57.8,29.56,NE,45,2.7,2.7,74,0.00,,,0.00,VWS V14.01,2013-08-06 14:15:00,
2013-08-06 10:20:00,66.6,58.0,29.56,NNE,22,0.9,0.9,74,0.00,,,0.00,VWS V14.01,2013-08-06 14:20:00,
2013-08-06 10:25:00,66.7,57.8,29.56,NE,45,3.8,3.8,73,0.00,,,0.00,VWS V14.01,2013-08-06 14:25:00,
2013-08-06 10:30:00,67.1,58.5,29.56,East,90,3.6,3.6,74,0.00,,,0.00,VWS V14.01,2013-08-06 14:30:00,
2013-08-06 10:35:00,67.5,58.5,29.56,NNW,338,0.0,0.0,73,0.00,,,0.00,VWS V14.01,2013-08-06 14:35:00,
2013-08-06 10:40:00,67.6,58.3,29.56,ENE,68,0.0,0.0,72,0.00,,,0.00,VWS V14.01,2013-08-06 14:40:00,
2013-08-06 10:45:00,68.4,59.0,29.56,NNE,22,0.0,0.0,72,0.00,,,0.00,VWS V14.01,2013-08-06 14:45:00,
2013-08-06 10:50:00,68.7,59.3,29.56,SSW,202,2.9,2.9,72,0.00,,,0.00,VWS V14.01,2013-08-06 14:50:00,
2013-08-06 10:55:00,69.3,59.5,29.56,SE,135,2.5,2.5,71,0.00,,,0.00,VWS V14.01,2013-08-06 14:55:00,
2013-08-06 11:00:00,69.6,59.8,29.56,SSE,158,4.0,4.0,71,0.00,,,0.00,VWS V14.01,2013-08-06 15:00:00,
2013-08-06 11:05:00,69.8,59.6,29.56,SSW,202,2.9,2.9,70,0.00,,,0.00,VWS V14.01,2013-08-06 15:05:00,
2013-08-06 11:10:00,70.3,59.7,29.56,WSW,248,2.9,2.9,69,0.00,,,0.00,VWS V14.01,2013-08-06 15:10:00,
2013-08-06 11:15:00,70.5,59.9,29.56,ENE,68,2.0,2.0,69,0.00,,,0.00,VWS V14.01,2013-08-06 15:15:00,
2013-08-06 11:20:00,70.7,59.6,29.56,WNW,292,0.0,0.0,68,0.00,,,0.00,VWS V14.01,2013-08-06 15:20:00,
2013-08-06 11:25:00,70.7,59.2,29.56,SSE,158,4.9,4.9,67,0.00,,,0.00,VWS V14.01,2013-08-06 15:25:00,
2013-08-06 11:30:00,71.2,59.7,29.56,West,270,3.1,3.1,67,0.00,,,0.00,VWS V14.01,2013-08-06 15:30:00,
2013-08-06 11:35:00,72.0,60.0,29.53,ESE,112,3.8,3.8,66,0.00,,,0.00,VWS V14.01,2013-08-06 15:35:00,
2013-08-06 11:40:00,72.1,60.2,29.53,West,270,0.9,0.9,66,0.00,,,0.00,VWS V14.01,2013-08-06 15:40:00,
2013-08-06 11:45:00,72.7,60.2,29.53,NW,315,3.6,3.6,65,0.00,,,0.00,VWS V14.01,2013-08-06 15:45:00,
2013-08-06 11:50:00,73.0,60.6,29.56,South,180,2.7,2.7,65,0.00,,,0.00,VWS V14.01,2013-08-06 15:50:00,
2013-08-06 11:51:00,73.0,60.6,29.56,East,90,2.0,2.0,65,0.00,,,0.00,VWS V14.01,2013-08-06 15:51:00,
2013-08-06 11:56:00,73.4,60.5,29.56,SSE,158,3.8,3.8,64,0.00,,,0.00,VWS V14.01,2013-08-06 15:56:00,
2013-08-06 12:01:00,73.4,60.0,29.56,NNE,22,5.4,5.4,63,0.00,,,0.00,VWS V14.01,2013-08-06 16:01:00,
2013-08-06 12:06:00,73.8,59.5,29.56,ESE,112,2.9,2.9,61,0.00,,,0.00,VWS V14.01,2013-08-06 16:06:00,
2013-08-06 12:11:00,73.8,59.9,29.56,ESE,112,2.9,2.9,62,0.00,,,0.00,VWS V14.01,2013-08-06 16:11:00,
2013-08-06 12:16:00,73.9,60.1,29.56,WNW,292,2.9,2.9,62,0.00,,,0.00,VWS V14.01,2013-08-06 16:16:00,
2013-08-06 12:21:00,74.3,58.6,29.56,West,270,5.4,5.4,58,0.00,,,0.00,VWS V14.01,2013-08-06 16:21:00,
2013-08-06 12:26:00,74.5,59.2,29.56,ENE,68,1.6,1.6,59,0.00,,,0.00,VWS V14.01,2013-08-06 16:26:00,
2013-08-06 12:31:00,74.7,59.9,29.56,SW,225,4.9,4.9,60,0.00,,,0.00,VWS V14.01,2013-08-06 16:31:00,
2013-08-06 12:36:00,75.0,59.7,29.56,SE,135,5.4,5.4,59,0.00,,,0.00,VWS V14.01,2013-08-06 16:36:00,
2013-08-06 12:41:00,75.2,57.9,29.56,SSW,202,4.3,4.3,55,0.00,,,0.00,VWS V14.01,2013-08-06 16:41:00,
2013-08-06 12:46:00,75.6,58.8,29.56,South,180,2.5,2.5,56,0.00,,,0.00,VWS V14.01,2013-08-06 16:46:00,
2013-08-06 12:51:00,75.9,59.6,29.56,South,180,2.5,2.5,57,0.00,,,0.00,VWS V14.01,2013-08-06 16:51:00,
2013-08-06 12:56:00,76.5,59.1,29.56,SSW,202,2.7,2.7,55,0.00,,,0.00,VWS V14.01,2013-08-06 16:56:00,
2013-08-06 13:01:00,77.0,60.1,29.56,SSE,158,9.8,9.8,56,0.00,,,0.00,VWS V14.01,2013-08-06 17:01:00,
2013-08-06 13:06:00,77.2,59.8,29.56,WNW,292,7.2,7.2,55,0.00,,,0.00,VWS V14.01,2013-08-06 17:06:00,
2013-08-06 13:11:00,77.4,60.5,29.56,SSE,158,6.5,6.5,56,0.00,,,0.00,VWS V14.01,2013-08-06 17:11:00,
2013-08-06 13:16:00,77.9,59.9,29.56,SSE,158,3.6,3.6,54,0.00,,,0.00,VWS V14.01,2013-08-06 17:16:00,
2013-08-06 13:21:00,77.9,59.4,29.56,SE,135,6.0,6.0,53,0.00,,,0.00,VWS V14.01,2013-08-06 17:21:00,
2013-08-06 13:26:00,77.7,59.2,29.56,SSW,202,6.5,6.5,53,0.00,,,0.00,VWS V14.01,2013-08-06 17:26:00,
2013-08-06 13:28:00,77.9,59.4,29.56,South,180,7.4,7.4,53,0.00,,,0.00,VWS V14.01,2013-08-06 17:28:00,
2013-08-06 13:33:00,78.4,59.4,29.56,SSW,202,2.9,2.9,52,0.00,,,0.00,VWS V14.01,2013-08-06 17:33:00,
2013-08-06 13:38:00,79.0,60.4,29.53,WSW,248,5.6,5.6,53,0.00,,,0.00,VWS V14.01,2013-08-06 17:38:00,
2013-08-06 13:43:00,79.2,60.6,29.53,SSW,202,10.7,10.7,53,0.00,,,0.00,VWS V14.01,2013-08-06 17:43:00,
2013-08-06 13:48:00,79.2,58.9,29.53,SSW,202,7.4,7.4,50,0.00,,,0.00,VWS V14.01,2013-08-06 17:48:00,
2013-08-06 13:53:00,78.4,58.8,29.53,South,180,6.0,6.0,51,0.00,,,0.00,VWS V14.01,2013-08-06 17:53:00,
2013-08-06 13:58:00,77.9,58.3,29.53,SSW,202,6.3,6.3,51,0.00,,,0.00,VWS V14.01,2013-08-06 17:58:00,
2013-08-06 14:03:00,78.4,59.9,29.53,SE,135,7.6,7.6,53,0.00,,,0.00,VWS V14.01,2013-08-06 18:03:00,
2013-08-06 14:08:00,78.8,58.6,29.53,SSW,202,7.8,7.8,50,0.00,,,0.00,VWS V14.01,2013-08-06 18:08:00,
2013-08-06 14:13:00,78.1,58.5,29.53,South,180,4.9,4.9,51,0.00,,,0.00,VWS V14.01,2013-08-06 18:13:00,
2013-08-06 14:18:00,77.9,58.3,29.53,SSW,202,6.0,6.0,51,0.00,,,0.00,VWS V14.01,2013-08-06 18:18:00,
2013-08-06 14:23:00,77.5,57.5,29.53,South,180,2.7,2.7,50,0.00,,,0.00,VWS V14.01,2013-08-06 18:23:00,
2013-08-06 14:28:00,77.7,58.2,29.53,SSW,202,2.7,2.7,51,0.00,,,0.00,VWS V14.01,2013-08-06 18:28:00,
2013-08-06 14:33:00,77.7,58.7,29.53,ESE,112,1.6,1.6,52,0.00,,,0.00,VWS V14.01,2013-08-06 18:33:00,
2013-08-06 14:38:00,78.1,59.0,29.53,SW,225,2.9,2.9,52,0.00,,,0.00,VWS V14.01,2013-08-06 18:38:00,
2013-08-06 14:43:00,77.9,59.4,29.53,SSE,158,5.4,5.4,53,0.00,,,0.00,VWS V14.01,2013-08-06 18:43:00,
2013-08-06 14:48:00,77.5,58.0,29.53,South,180,5.8,5.8,51,0.00,,,0.00,VWS V14.01,2013-08-06 18:48:00,
2013-08-06 14:53:00,77.2,57.7,29.53,SSW,202,3.6,3.6,51,0.00,,,0.00,VWS V14.01,2013-08-06 18:53:00,
2013-08-06 14:58:00,77.0,57.5,29.53,SSW,202,7.4,7.4,51,0.00,,,0.00,VWS V14.01,2013-08-06 18:58:00,
2013-08-06 15:03:00,77.4,58.9,29.53,West,270,1.6,1.6,53,0.00,,,0.00,VWS V14.01,2013-08-06 19:03:00,
2013-08-06 15:08:00,77.9,59.4,29.53,SSW,202,7.6,7.6,53,0.00,,,0.00,VWS V14.01,2013-08-06 19:08:00,
2013-08-06 15:13:00,78.6,59.5,29.53,SSE,158,4.3,4.3,52,0.00,,,0.00,VWS V14.01,2013-08-06 19:13:00,
2013-08-06 15:18:00,79.5,58.7,29.53,South,180,8.7,8.7,49,0.00,,,0.00,VWS V14.01,2013-08-06 19:18:00,
2013-08-06 15:23:00,79.5,58.1,29.56,SSE,158,5.8,5.8,48,0.00,,,0.00,VWS V14.01,2013-08-06 19:23:00,
2013-08-06 15:28:00,80.1,59.2,29.56,SSW,202,10.5,10.5,49,0.00,,,0.00,VWS V14.01,2013-08-06 19:28:00,
2013-08-06 15:33:00,80.2,58.8,29.56,SSE,158,7.8,7.8,48,0.00,,,0.00,VWS V14.01,2013-08-06 19:33:00,
2013-08-06 15:38:00,79.9,57.9,29.56,South,180,4.0,4.0,47,0.00,,,0.00,VWS V14.01,2013-08-06 19:38:00,
2013-08-06 15:43:00,80.6,57.9,29.56,SW,225,4.9,4.9,46,0.00,,,0.00,VWS V14.01,2013-08-06 19:43:00,
2013-08-06 15:48:00,80.8,59.3,29.56,South,180,7.4,7.4,48,0.00,,,0.00,VWS V14.01,2013-08-06 19:48:00,
2013-08-06 15:53:00,81.1,59.0,29.56,South,180,9.2,9.2,47,0.00,,,0.00,VWS V14.01,2013-08-06 19:53:00,
2013-08-06 15:58:00,81.1,58.4,29.56,SW,225,2.9,2.9,46,0.00,,,0.00,VWS V14.01,2013-08-06 19:58:00,
2013-08-06 16:03:00,81.3,58.6,29.56,SSW,202,8.7,8.7,46,0.00,,,0.00,VWS V14.01,2013-08-06 20:03:00,
2013-08-06 16:08:00,81.0,57.0,29.56,SSW,202,10.7,10.7,44,0.00,,,0.00,VWS V14.01,2013-08-06 20:08:00,
2013-08-06 16:13:00,80.6,56.7,29.56,South,180,5.4,5.4,44,0.00,,,0.00,VWS V14.01,2013-08-06 20:13:00,
2013-08-06 16:18:00,80.6,57.3,29.56,South,180,5.4,5.4,45,0.00,,,0.00,VWS V14.01,2013-08-06 20:18:00,
2013-08-06 16:23:00,80.1,56.2,29.56,South,180,5.8,5.8,44,0.00,,,0.00,VWS V14.01,2013-08-06 20:23:00,
2013-08-06 16:28:00,79.3,56.2,29.56,South,180,5.4,5.4,45,0.00,,,0.00,VWS V14.01,2013-08-06 20:28:00,
2013-08-06 16:32:00,79.0,56.5,29.56,SSW,202,3.4,3.4,46,0.00,,,0.00,VWS V14.01,2013-08-06 20:32:00,
2013-08-06 16:37:00,78.6,56.7,29.56,South,180,6.0,6.0,47,0.00,,,0.00,VWS V14.01,2013-08-06 20:37:00,
2013-08-06 16:42:00,78.4,56.6,29.56,SSE,158,2.7,2.7,47,0.00,,,0.00,VWS V14.01,2013-08-06 20:42:00,
2013-08-06 16:47:00,78.1,56.8,29.56,SSW,202,2.9,2.9,48,0.00,,,0.00,VWS V14.01,2013-08-06 20:47:00,
2013-08-06 16:52:00,77.9,56.7,29.59,SW,225,3.8,3.8,48,0.00,,,0.00,VWS V14.01,2013-08-06 20:52:00,
2013-08-06 16:57:00,77.5,56.3,29.59,WNW,292,3.4,3.4,48,0.00,,,0.00,VWS V14.01,2013-08-06 20:57:00,
2013-08-06 17:02:00,77.0,56.4,29.59,SSW,202,3.4,3.4,49,0.00,,,0.00,VWS V14.01,2013-08-06 21:02:00,
2013-08-06 17:07:00,76.6,56.6,29.56,SSW,202,1.3,1.3,50,0.00,,,0.00,VWS V14.01,2013-08-06 21:07:00,
2013-08-06 17:12:00,76.6,56.6,29.56,SSW,202,1.1,1.1,50,0.00,,,0.00,VWS V14.01,2013-08-06 21:12:00,
2013-08-06 17:17:00,76.5,57.0,29.56,SSW,202,3.4,3.4,51,0.00,,,0.00,VWS V14.01,2013-08-06 21:17:00,
2013-08-06 17:22:00,76.3,56.8,29.56,SSE,158,3.4,3.4,51,0.00,,,0.00,VWS V14.01,2013-08-06 21:22:00,
2013-08-06 17:27:00,76.1,57.2,29.56,SSE,158,0.9,0.9,52,0.00,,,0.00,VWS V14.01,2013-08-06 21:27:00,
2013-08-06 17:32:00,75.9,56.5,29.56,SE,135,3.1,3.1,51,0.00,,,0.00,VWS V14.01,2013-08-06 21:32:00,
2013-08-06 17:37:00,75.6,56.7,29.56,SW,225,2.2,2.2,52,0.00,,,0.00,VWS V14.01,2013-08-06 21:37:00,
2013-08-06 17:42:00,75.2,56.4,29.56,SSW,202,6.5,6.5,52,0.00,,,0.00,VWS V14.01,2013-08-06 21:42:00,
2013-08-06 17:47:00,75.2,56.9,29.56,WSW,248,2.5,2.5,53,0.00,,,0.00,VWS V14.01,2013-08-06 21:47:00,
2013-08-06 17:52:00,75.4,57.1,29.56,South,180,3.1,3.1,53,0.00,,,0.00,VWS V14.01,2013-08-06 21:52:00,
2013-08-06 17:57:00,75.4,57.6,29.56,WSW,248,2.5,2.5,54,0.00,,,0.00,VWS V14.01,2013-08-06 21:57:00,
2013-08-06 18:02:00,75.4,57.1,29.56,ESE,112,5.6,5.6,53,0.00,,,0.00,VWS V14.01,2013-08-06 22:02:00,
2013-08-06 18:07:00,75.2,56.9,29.56,South,180,2.7,2.7,53,0.00,,,0.00,VWS V14.01,2013-08-06 22:07:00,
2013-08-06 18:12:00,75.2,56.9,29.56,SSW,202,3.1,3.1,53,0.00,,,0.00,VWS V14.01,2013-08-06 22:12:00,
2013-08-06 18:17:00,75.2,57.4,29.56,SSE,158,2.5,2.5,54,0.00,,,0.00,VWS V14.01,2013-08-06 22:17:00,
2013-08-06 18:22:00,75.0,57.3,29.56,West,270,2.7,2.7,54,0.00,,,0.00,VWS V14.01,2013-08-06 22:22:00,
2013-08-06 18:27:00,74.8,57.1,29.56,SSW,202,4.0,4.0,54,0.00,,,0.00,VWS V14.01,2013-08-06 22:27:00,
2013-08-06 18:32:00,74.7,56.4,29.56,WSW,248,1.3,1.3,53,0.00,,,0.00,VWS V14.01,2013-08-06 22:32:00,
2013-08-06 18:38:00,74.5,56.8,29.56,WSW,248,4.9,4.9,54,0.00,,,0.00,VWS V14.01,2013-08-06 22:38:00,
2013-08-06 18:43:00,74.1,56.4,29.56,South,180,4.7,4.7,54,0.00,,,0.00,VWS V14.01,2013-08-06 22:43:00,
2013-08-06 18:48:00,74.1,56.9,29.56,WSW,248,1.6,1.6,55,0.00,,,0.00,VWS V14.01,2013-08-06 22:48:00,
2013-08-06 18:53:00,73.9,56.8,29.56,SSW,202,3.4,3.4,55,0.00,,,0.00,VWS V14.01,2013-08-06 22:53:00,
2013-08-06 18:58:00,73.9,56.8,29.56,SSW,202,2.2,2.2,55,0.00,,,0.00,VWS V14.01,2013-08-06 22:58:00,
2013-08-06 19:03:00,74.3,57.1,29.56,West,270,3.6,3.6,55,0.00,,,0.00,VWS V14.01,2013-08-06 23:03:00,
2013-08-06 19:08:00,74.5,57.3,29.56,SSW,202,1.1,1.1,55,0.00,,,0.00,VWS V14.01,2013-08-06 23:08:00,
2013-08-06 19:13:00,74.7,57.4,29.56,WSW,248,0.0,0.0,55,0.00,,,0.00,VWS V14.01,2013-08-06 23:13:00,
2013-08-06 19:18:00,74.5,57.3,29.56,SSW,202,2.2,2.2,55,0.00,,,0.00,VWS V14.01,2013-08-06 23:18:00,
2013-08-06 19:23:00,73.9,56.8,29.56,SSW,202,2.9,2.9,55,0.00,,,0.00,VWS V14.01,2013-08-06 23:23:00,
2013-08-06 19:28:00,73.6,56.9,29.56,SSW,202,2.9,2.9,56,0.00,,,0.00,VWS V14.01,2013-08-06 23:28:00,
2013-08-06 19:33:00,73.2,57.1,29.56,SSW,202,0.0,0.0,57,0.00,,,0.00,VWS V14.01,2013-08-06 23:33:00,
2013-08-06 19:38:00,72.9,56.8,29.56,ESE,112,0.9,0.9,57,0.00,,,0.00,VWS V14.01,2013-08-06 23:38:00,
2013-08-06 19:43:00,72.7,56.6,29.56,South,180,1.6,1.6,57,0.00,,,0.00,VWS V14.01,2013-08-06 23:43:00,
2013-08-06 19:48:00,72.7,57.1,29.56,South,180,3.4,3.4,58,0.00,,,0.00,VWS V14.01,2013-08-06 23:48:00,
2013-08-06 19:53:00,72.3,56.7,29.56,WSW,248,2.2,2.2,58,0.00,,,0.00,VWS V14.01,2013-08-06 23:53:00,
2013-08-06 19:58:00,72.1,56.6,29.56,South,180,2.7,2.7,58,0.00,,,0.00,VWS V14.01,2013-08-06 23:58:00,
2013-08-06 20:03:00,72.0,56.9,29.56,SSW,202,2.5,2.5,59,0.00,,,0.00,VWS V14.01,2013-08-07 00:03:00,
2013-08-06 20:08:00,72.0,57.3,29.56,SSW,202,2.9,2.9,60,0.00,,,0.00,VWS V14.01,2013-08-07 00:08:00,
2013-08-06 20:13:00,71.8,57.2,29.56,SSW,202,2.5,2.5,60,0.00,,,0.00,VWS V14.01,2013-08-07 00:13:00,
2013-08-06 20:18:00,71.8,57.2,29.56,South,180,0.0,0.0,60,0.00,,,0.00,VWS V14.01,2013-08-07 00:18:00,
2013-08-06 20:23:00,71.6,57.5,29.56,SSW,202,1.3,1.3,61,0.00,,,0.00,VWS V14.01,2013-08-07 00:23:00,
2013-08-06 20:28:00,71.4,57.3,29.56,SSW,202,3.1,3.1,61,0.00,,,0.00,VWS V14.01,2013-08-07 00:28:00,
2013-08-06 20:33:00,71.4,57.3,29.56,SSW,202,2.7,2.7,61,0.00,,,0.00,VWS V14.01,2013-08-07 00:33:00,
2013-08-06 20:38:00,71.2,57.6,29.56,South,180,3.6,3.6,62,0.00,,,0.00,VWS V14.01,2013-08-07 00:38:00,
2013-08-06 20:43:00,71.1,57.4,29.56,SSE,158,2.5,2.5,62,0.00,,,0.00,VWS V14.01,2013-08-07 00:43:00,
2013-08-06 20:48:00,71.1,57.4,29.56,SSW,202,1.6,1.6,62,0.00,,,0.00,VWS V14.01,2013-08-07 00:48:00,
2013-08-06 20:53:00,70.9,57.7,29.56,SSW,202,1.1,1.1,63,0.00,,,0.00,VWS V14.01,2013-08-07 00:53:00,
2013-08-06 20:58:00,70.9,57.7,29.56,SSW,202,1.6,1.6,63,0.00,,,0.00,VWS V14.01,2013-08-07 00:58:00,
2013-08-06 21:03:00,70.7,57.5,29.56,South,180,1.3,1.3,63,0.00,,,0.00,VWS V14.01,2013-08-07 01:03:00,
2013-08-06 21:08:00,70.7,57.9,29.53,SSE,158,1.6,1.6,64,0.00,,,0.00,VWS V14.01,2013-08-07 01:08:00,
2013-08-06 21:13:00,70.7,57.9,29.53,SSE,158,0.0,0.0,64,0.00,,,0.00,VWS V14.01,2013-08-07 01:13:00,
2013-08-06 21:18:00,70.7,57.9,29.53,SSE,158,0.0,0.0,64,0.00,,,0.00,VWS V14.01,2013-08-07 01:18:00,
2013-08-06 21:23:00,70.5,57.8,29.56,South,180,1.1,1.1,64,0.00,,,0.00,VWS V14.01,2013-08-07 01:23:00,
2013-08-06 21:28:00,70.3,57.6,29.56,SW,225,4.0,4.0,64,0.00,,,0.00,VWS V14.01,2013-08-07 01:28:00,
2013-08-06 21:33:00,70.3,57.6,29.56,SSE,158,2.9,2.9,64,0.00,,,0.00,VWS V14.01,2013-08-07 01:33:00,
2013-08-06 21:38:00,70.2,57.9,29.53,SSW,202,4.9,4.9,65,0.00,,,0.00,VWS V14.01,2013-08-07 01:38:00,
2013-08-06 21:43:00,70.0,57.7,29.53,South,180,4.0,4.0,65,0.00,,,0.00,VWS V14.01,2013-08-07 01:43:00,
2013-08-06 21:48:00,69.8,57.5,29.53,SSE,158,3.4,3.4,65,0.00,,,0.00,VWS V14.01,2013-08-07 01:48:00,
2013-08-06 21:53:00,69.8,57.5,29.53,South,180,3.8,3.8,65,0.00,,,0.00,VWS V14.01,2013-08-07 01:53:00,
2013-08-06 21:58:00,69.6,58.2,29.53,SSW,202,5.8,5.8,67,0.00,,,0.00,VWS V14.01,2013-08-07 01:58:00,
2013-08-06 22:03:00,69.6,58.2,29.53,SW,225,4.0,4.0,67,0.00,,,0.00,VWS V14.01,2013-08-07 02:03:00,
2013-08-06 22:08:00,69.6,58.2,29.56,South,180,6.0,6.0,67,0.00,,,0.00,VWS V14.01,2013-08-07 02:08:00,
2013-08-06 22:13:00,69.4,58.4,29.56,WSW,248,2.0,2.0,68,0.00,,,0.00,VWS V14.01,2013-08-07 02:13:00,
2013-08-06 22:18:00,69.3,58.3,29.56,SW,225,2.9,2.9,68,0.00,,,0.00,VWS V14.01,2013-08-07 02:18:00,
2013-08-06 22:23:00,69.3,58.3,29.56,SE,135,2.7,2.7,68,0.00,,,0.00,VWS V14.01,2013-08-07 02:23:00,
2013-08-06 22:28:00,69.1,58.5,29.56,SSW,202,2.0,2.0,69,0.00,,,0.00,VWS V14.01,2013-08-07 02:28:00,
2013-08-06 22:33:00,69.1,58.5,29.56,SSW,202,3.1,3.1,69,0.00,,,0.00,VWS V14.01,2013-08-07 02:33:00,
2013-08-06 22:38:00,69.1,58.5,29.56,SW,225,4.7,4.7,69,0.00,,,0.00,VWS V14.01,2013-08-07 02:38:00,
2013-08-06 22:43:00,68.9,58.3,29.56,SSW,202,2.9,2.9,69,0.00,,,0.00,VWS V14.01,2013-08-07 02:43:00,
2013-08-06 22:48:00,68.9,58.3,29.56,SSW,202,3.6,3.6,69,0.00,,,0.00,VWS V14.01,2013-08-07 02:48:00,
2013-08-06 22:53:00,68.7,58.5,29.56,SSW,202,2.5,2.5,70,0.00,,,0.00,VWS V14.01,2013-08-07 02:53:00,
2013-08-06 22:58:00,68.7,58.5,29.56,South,180,0.0,0.0,70,0.00,,,0.00,VWS V14.01,2013-08-07 02:58:00,
2013-08-06 23:03:00,68.7,58.5,29.56,SSW,202,4.0,4.0,70,0.00,,,0.00,VWS V14.01,2013-08-07 03:03:00,
2013-08-06 23:08:00,68.7,58.5,29.59,SSW,202,2.7,2.7,70,0.00,,,0.00,VWS V14.01,2013-08-07 03:08:00,
2013-08-06 23:13:00,68.7,58.5,29.59,SE,135,0.9,0.9,70,0.00,,,0.00,VWS V14.01,2013-08-07 03:13:00,
2013-08-06 23:18:00,68.7,59.0,29.59,SSW,202,2.9,2.9,71,0.00,,,0.00,VWS V14.01,2013-08-07 03:18:00,
2013-08-06 23:23:00,68.7,59.0,29.56,SE,135,2.0,2.0,71,0.00,,,0.00,VWS V14.01,2013-08-07 03:23:00,
2013-08-06 23:28:00,68.5,58.8,29.56,SSW,202,1.6,1.6,71,0.00,,,0.00,VWS V14.01,2013-08-07 03:28:00,
2013-08-06 23:33:00,68.5,58.8,29.56,SE,135,2.2,2.2,71,0.00,,,0.00,VWS V14.01,2013-08-07 03:33:00,
2013-08-06 23:38:00,68.5,58.8,29.56,West,270,1.1,1.1,71,0.00,,,0.00,VWS V14.01,2013-08-07 03:38:00,
2013-08-06 23:43:00,68.5,58.8,29.56,SSE,158,3.6,3.6,71,0.00,,,0.00,VWS V14.01,2013-08-07 03:43:00,
2013-08-06 23:48:00,68.5,58.8,29.56,SSW,202,1.3,1.3,71,0.00,,,0.00,VWS V14.01,2013-08-07 03:48:00,
2013-08-06 23:53:00,68.5,59.2,29.56,SW,225,1.1,1.1,72,0.00,,,0.00,VWS V14.01,2013-08-07 03:53:00,
2013-08-06 23:58:00,68.4,59.0,29.56,SW,225,3.6,3.6,72,0.00,,,0.00,VWS V14.01,2013-08-07 03:58:00,